createdAt,value
2018-07-06T00:01:44.907Z,101745.20
2018-07-06T00:04:58.750Z,101746.60
2018-07-06T00:08:12.243Z,101742.39
2018-07-06T00:11:26.005Z,101740.67
2018-07-06T00:14:39.891Z,101740.11
2018-07-06T00:17:53.646Z,101743.66
2018-07-06T00:21:08.147Z,101748.73
2018-07-06T00:24:21.972Z,101745.30
2018-07-06T00:27:35.733Z,101750.29
2018-07-06T00:30:49.401Z,101745.68
2018-07-06T00:34:03.127Z,101751.49
2018-07-06T00:37:16.668Z,101756.33
2018-07-06T00:40:30.274Z,101757.59
2018-07-06T00:43:44.044Z,101753.28
2018-07-06T00:46:57.785Z,101761.64
2018-07-06T00:50:11.376Z,101762.28
2018-07-06T00:53:25.138Z,101763.01
2018-07-06T00:56:38.898Z,101769.41
2018-07-06T00:59:52.443Z,101770.28
2018-07-06T01:03:06.303Z,101776.04
2018-07-06T01:06:19.916Z,101775.99
2018-07-06T01:09:33.555Z,101771.59
2018-07-06T01:12:52.932Z,101768.28
2018-07-06T01:16:06.599Z,101769.30
2018-07-06T01:19:20.307Z,101766.40
2018-07-06T01:22:33.943Z,101769.22
2018-07-06T01:25:47.633Z,101765.87
2018-07-06T01:29:01.248Z,101770.09
2018-07-06T01:32:15.002Z,101776.34
2018-07-06T01:35:28.743Z,101773.53
2018-07-06T01:38:42.574Z,101772.46
2018-07-06T01:41:56.369Z,101774.78
2018-07-06T01:45:10.062Z,101774.10
2018-07-06T01:48:23.687Z,101768.92
2018-07-06T01:51:37.356Z,101763.84
2018-07-06T01:54:51.203Z,101763.29
2018-07-06T01:58:04.831Z,101763.45
2018-07-06T02:01:18.335Z,101762.58
2018-07-06T02:04:32.000Z,101763.70
2018-07-06T02:07:45.732Z,101766.10
2018-07-06T02:10:59.285Z,101772.27
2018-07-06T02:14:14.080Z,101773.82
2018-07-06T02:17:27.712Z,101772.46
2018-07-06T02:20:41.413Z,101772.61
2018-07-06T02:23:55.145Z,101776.34
2018-07-06T02:27:08.707Z,101777.79
2018-07-06T02:30:22.130Z,101776.68
2018-07-06T02:33:35.852Z,101778.92
2018-07-06T02:36:50.213Z,101784.22
2018-07-06T02:40:03.835Z,101783.64
2018-07-06T02:43:17.485Z,101786.39
2018-07-06T02:46:31.132Z,101784.41
2018-07-06T02:49:44.867Z,101787.62
2018-07-06T02:52:58.585Z,101789.59
2018-07-06T02:56:12.183Z,101794.18
2018-07-06T02:59:26.723Z,101792.46
2018-07-06T03:02:40.403Z,101791.61
2018-07-06T03:05:54.032Z,101791.93
2018-07-06T03:09:07.526Z,101800.65
2018-07-06T03:12:21.264Z,101800.70
2018-07-06T03:15:34.960Z,101798.98
2018-07-06T03:18:48.858Z,101797.38
2018-07-06T03:22:02.562Z,101807.26
2018-07-06T03:25:17.055Z,101803.84
2018-07-06T03:28:30.698Z,101800.14
2018-07-06T03:31:44.188Z,101798.48
2018-07-06T03:34:57.736Z,101801.62
2018-07-06T03:38:11.352Z,101802.54
2018-07-06T03:41:25.140Z,101803.87
2018-07-06T03:44:38.766Z,101807.17
2018-07-06T03:47:52.268Z,101803.10
2018-07-06T03:51:06.242Z,101805.13
2018-07-06T03:54:20.875Z,101800.76
2018-07-06T03:57:35.189Z,101810.18
2018-07-06T04:00:48.837Z,101815.56
2018-07-06T04:04:02.405Z,101811.74
2018-07-06T04:07:15.995Z,101817.42
2018-07-06T04:10:29.607Z,101822.67
2018-07-06T04:13:44.435Z,101823.71
2018-07-06T04:16:58.034Z,101825.03
2018-07-06T04:20:11.876Z,101829.43
2018-07-06T04:23:25.445Z,101826.95
2018-07-06T04:26:39.119Z,101829.23
2018-07-06T04:29:52.919Z,101833.82
2018-07-06T04:33:06.607Z,101840.54
2018-07-06T04:36:21.476Z,101840.87
2018-07-06T04:39:35.237Z,101843.10
2018-07-06T04:42:48.788Z,101846.99
2018-07-06T04:46:02.392Z,101854.39
2018-07-06T04:49:16.059Z,101856.62
2018-07-06T04:52:29.670Z,101862.49
2018-07-06T04:55:44.307Z,101860.80
2018-07-06T04:58:58.075Z,101861.09
2018-07-06T05:02:11.784Z,101863.47
2018-07-06T05:05:25.400Z,101865.63
2018-07-06T05:08:39.149Z,101869.21
2018-07-06T05:11:52.904Z,101868.75
2018-07-06T05:15:06.843Z,101869.94
2018-07-06T05:18:20.671Z,101877.18
2018-07-06T05:21:34.387Z,101881.49
2018-07-06T05:24:48.002Z,101883.28
2018-07-06T05:28:01.746Z,101891.94
2018-07-06T05:31:15.543Z,101890.42
2018-07-06T05:34:29.155Z,101884.73
2018-07-06T05:37:42.683Z,101882.33
2018-07-06T05:40:56.235Z,101888.54
2018-07-06T05:44:09.977Z,101887.49
2018-07-06T05:47:23.614Z,101883.01
2018-07-06T05:50:37.244Z,101887.90
2018-07-06T05:53:51.228Z,101887.52
2018-07-06T05:57:05.880Z,101889.04
2018-07-06T06:00:19.833Z,101890.29
2018-07-06T06:03:33.560Z,101887.97
2018-07-06T06:06:47.227Z,101891.59
2018-07-06T06:09:49.307Z,101901.78
2018-07-06T06:12:51.560Z,101903.19
2018-07-06T06:15:54.071Z,101900.47
2018-07-06T06:18:56.597Z,101905.14
2018-07-06T06:21:58.659Z,101903.92
2018-07-06T06:25:00.805Z,101901.26
2018-07-06T06:28:02.929Z,101906.98
2018-07-06T06:31:04.955Z,101901.83
2018-07-06T06:34:07.120Z,101911.05
2018-07-06T06:37:09.211Z,101916.28
2018-07-06T06:40:11.426Z,101913.86
2018-07-06T06:43:13.489Z,101914.59
2018-07-06T06:46:16.916Z,101914.94
2018-07-06T06:49:19.138Z,101917.11
2018-07-06T06:52:21.372Z,101918.74
2018-07-06T06:55:23.425Z,101923.44
2018-07-06T06:58:26.083Z,101924.15
2018-07-06T07:01:28.354Z,101928.99
2018-07-06T07:04:30.482Z,101927.67
2018-07-06T07:07:32.847Z,101928.03
2018-07-06T07:10:34.980Z,101927.40
2018-07-06T07:13:37.138Z,101932.56
2018-07-06T07:16:40.644Z,101928.96
2018-07-06T07:19:43.170Z,101930.58
2018-07-06T07:22:45.400Z,101935.49
2018-07-06T07:25:47.552Z,101938.84
2018-07-06T07:28:49.645Z,101939.91
2018-07-06T07:31:51.763Z,101937.72
2018-07-06T07:34:53.794Z,101938.31
2018-07-06T07:37:55.788Z,101937.98
2018-07-06T07:40:57.869Z,101940.39
2018-07-06T07:44:00.283Z,101941.92
2018-07-06T07:47:02.417Z,101941.80
2018-07-06T07:50:04.432Z,101940.49
2018-07-06T07:53:18.832Z,101947.55
2018-07-06T07:56:21.223Z,101948.80
2018-07-06T07:59:23.338Z,101947.76
2018-07-06T08:02:25.443Z,101953.74
2018-07-06T08:05:27.595Z,101960.25
2018-07-06T08:08:29.816Z,101961.52
2018-07-06T08:11:35.445Z,101966.48
2018-07-06T08:14:35.360Z,101959.71
2018-07-06T08:17:37.487Z,101959.46
2018-07-06T08:20:39.620Z,101967.58
2018-07-06T08:23:41.665Z,101967.55
2018-07-06T08:26:43.780Z,101974.65
2018-07-06T08:29:45.919Z,101977.38
2018-07-06T08:32:47.936Z,101975.91
2018-07-06T08:36:01.485Z,101979.10
2018-07-06T08:39:04.613Z,101982.91
2018-07-06T08:42:06.683Z,101992.96
2018-07-06T08:45:09.303Z,101989.72
2018-07-06T08:48:11.439Z,101997.32
2018-07-06T08:51:13.492Z,102000.35
2018-07-06T08:54:15.494Z,101991.32
2018-07-06T08:57:18.081Z,101990.15
2018-07-06T09:00:20.239Z,101987.69
2018-07-06T09:03:22.229Z,101989.85
2018-07-06T09:06:24.404Z,101992.43
2018-07-06T09:09:26.718Z,101991.48
2018-07-06T09:12:28.801Z,101993.57
2018-07-06T09:15:30.897Z,101997.37
2018-07-06T09:18:33.027Z,101989.08
2018-07-06T09:21:36.836Z,101995.09
2018-07-06T09:24:39.101Z,101990.62
2018-07-06T09:27:41.193Z,101988.95
2018-07-06T09:30:43.483Z,101997.92
2018-07-06T09:33:45.342Z,102001.68
2018-07-06T09:36:47.523Z,102006.72
2018-07-06T09:39:50.231Z,101997.12
2018-07-06T09:42:52.157Z,101999.14
2018-07-06T09:45:54.336Z,101997.14
2018-07-06T09:48:56.394Z,102002.00
2018-07-06T09:52:00.580Z,102000.88
2018-07-06T09:55:02.793Z,101999.40
2018-07-06T09:58:06.200Z,101991.77
2018-07-06T10:01:08.208Z,101990.32
2018-07-06T10:04:10.342Z,101996.18
2018-07-06T10:07:13.440Z,101992.68
2018-07-06T10:10:15.617Z,102001.51
2018-07-06T10:13:17.831Z,102000.29
2018-07-06T10:16:20.298Z,101994.76
2018-07-06T10:19:22.417Z,101988.46
2018-07-06T10:22:24.493Z,101998.43
2018-07-06T10:25:26.609Z,101999.08
2018-07-06T10:30:50.516Z,102003.85
2018-07-06T10:33:52.505Z,102006.26
2018-07-06T10:36:54.602Z,102002.60
2018-07-06T10:39:56.905Z,101998.34
2018-07-06T10:42:58.847Z,102004.08
2018-07-06T10:46:00.927Z,101998.45
2018-07-06T10:49:03.410Z,102004.26
2018-07-06T10:52:06.825Z,102004.24
2018-07-06T10:55:08.842Z,101994.61
2018-07-06T10:58:11.088Z,102008.71
2018-07-06T11:01:13.201Z,102005.43
2018-07-06T11:04:15.363Z,102002.21
2018-07-06T11:07:17.418Z,102001.26
2018-07-06T11:10:19.577Z,101991.83
2018-07-06T11:13:21.592Z,101993.24
2018-07-06T11:16:23.656Z,101993.86
2018-07-06T11:19:25.679Z,101998.20
2018-07-06T11:22:27.752Z,101997.19
2018-07-06T11:25:29.850Z,101993.62
2018-07-06T11:28:31.912Z,101989.77
2018-07-06T11:31:35.468Z,101986.68
2018-07-06T11:34:37.607Z,101999.71
2018-07-06T11:37:41.679Z,101998.75
2018-07-06T11:40:43.845Z,101992.61
2018-07-06T11:43:45.850Z,101984.24
2018-07-06T11:46:47.911Z,101992.82
2018-07-06T11:49:50.123Z,101991.37
2018-07-06T11:52:52.166Z,101990.39
2018-07-06T11:55:54.370Z,101990.60
2018-07-06T11:58:56.576Z,101990.48
2018-07-06T12:01:58.764Z,101992.10
2018-07-06T12:05:00.841Z,101995.17
2018-07-06T12:08:02.817Z,101983.44
2018-07-06T12:11:06.153Z,101970.91
2018-07-06T12:14:08.322Z,101969.71
2018-07-06T12:17:10.444Z,101971.46
2018-07-06T12:20:12.518Z,101980.41
2018-07-06T12:23:14.647Z,101963.73
2018-07-06T12:26:16.681Z,101967.81
2018-07-06T12:29:18.745Z,101969.56
2018-07-06T12:32:20.943Z,101962.03
2018-07-06T12:35:23.096Z,101963.15
2018-07-06T12:38:25.137Z,101964.29
2018-07-06T12:41:27.244Z,101961.17
2018-07-06T12:44:29.287Z,101959.81
2018-07-06T12:47:31.921Z,101955.38
2018-07-06T12:50:34.031Z,101947.46
2018-07-06T12:53:36.028Z,101948.37
2018-07-06T12:56:38.902Z,101946.92
2018-07-06T12:59:41.064Z,101947.32
2018-07-06T13:02:44.451Z,101943.55
2018-07-06T13:05:46.582Z,101937.98
2018-07-06T13:08:48.660Z,101936.97
2018-07-06T13:11:50.961Z,101942.86
2018-07-06T13:14:53.197Z,101934.38
2018-07-06T13:17:55.380Z,101933.19
2018-07-06T13:20:57.534Z,101938.04
2018-07-06T13:23:59.622Z,101942.94
2018-07-06T13:27:01.723Z,101936.84
2018-07-06T13:30:03.927Z,101937.92
2018-07-06T13:33:05.970Z,101942.81
2018-07-06T13:36:09.549Z,101950.57
2018-07-06T13:39:12.914Z,101953.54
2018-07-06T13:42:14.928Z,101946.71
2018-07-06T13:45:17.118Z,101948.34
2018-07-06T13:48:20.395Z,101951.74
2018-07-06T13:51:22.483Z,101950.82
2018-07-06T13:54:24.752Z,101957.95
2018-07-06T14:00:28.367Z,101959.69
2018-07-06T14:03:30.446Z,101958.08
2018-07-06T14:06:32.546Z,101948.31
2018-07-06T14:09:34.877Z,101951.47
2018-07-06T14:12:37.049Z,101954.12
2018-07-06T14:15:39.794Z,101953.50
2018-07-06T14:18:41.919Z,101951.58
2018-07-06T14:21:43.978Z,101951.20
2018-07-06T14:24:46.147Z,101950.51
2018-07-06T14:30:50.618Z,101956.57
2018-07-06T14:33:53.782Z,101960.31
2018-07-06T14:36:56.027Z,101969.43
2018-07-06T14:39:58.165Z,101978.95
2018-07-06T14:43:00.425Z,101982.07
2018-07-06T14:46:02.571Z,101981.86
2018-07-06T14:49:05.095Z,101982.62
2018-07-06T14:52:07.312Z,101989.48
2018-07-06T14:55:10.069Z,101996.66
2018-07-06T14:58:12.270Z,102002.40
2018-07-06T15:01:14.341Z,101997.09
2018-07-06T15:04:16.740Z,101987.37
2018-07-06T15:07:18.999Z,101986.73
2018-07-06T15:10:21.068Z,101986.78
2018-07-06T15:13:23.266Z,101984.98
2018-07-06T15:16:25.620Z,101979.04
2018-07-06T15:19:27.748Z,101977.66
2018-07-06T15:22:29.804Z,101976.29
2018-07-06T15:25:31.920Z,101976.00
2018-07-06T15:28:34.008Z,101969.49
2018-07-06T15:31:36.556Z,101968.64
2018-07-06T15:34:39.853Z,101963.83
2018-07-06T15:37:42.365Z,101963.83
2018-07-06T15:40:44.419Z,101958.48
2018-07-06T15:43:46.933Z,101958.43
2018-07-06T15:46:49.429Z,101958.46
2018-07-06T15:49:52.010Z,101958.54
2018-07-06T15:52:54.501Z,101959.98
2018-07-06T15:55:56.985Z,101966.83
2018-07-06T15:58:59.541Z,101967.23
2018-07-06T16:02:02.155Z,101959.75
2018-07-06T16:05:04.846Z,101960.65
2018-07-06T16:08:07.943Z,101958.60
2018-07-06T16:11:10.096Z,101949.73
2018-07-06T16:14:12.708Z,101937.67
2018-07-06T16:17:15.159Z,101935.39
2018-07-06T16:20:17.627Z,101930.42
2018-07-06T16:23:19.624Z,101921.72
2018-07-06T16:26:22.165Z,101935.71
2018-07-06T16:29:24.703Z,101937.04
2018-07-06T16:32:27.148Z,101945.96
2018-07-06T16:35:29.700Z,101938.95
2018-07-06T16:38:32.009Z,101945.16
2018-07-06T16:41:34.380Z,101940.12
2018-07-06T16:44:36.714Z,101944.02
2018-07-06T16:47:39.019Z,101943.18
2018-07-06T16:50:42.185Z,101947.45
2018-07-06T16:53:44.387Z,101952.82
2018-07-06T16:56:46.611Z,101953.66
2018-07-06T16:59:49.043Z,101954.45
2018-07-06T17:02:51.135Z,101965.62
2018-07-06T17:05:53.559Z,101966.68
2018-07-06T17:08:55.848Z,101968.82
2018-07-06T17:11:58.043Z,101969.48
2018-07-06T17:15:00.236Z,101976.64
2018-07-06T17:18:03.340Z,101976.48
2018-07-06T17:21:05.695Z,101980.57
2018-07-06T17:24:07.900Z,101986.55
2018-07-06T17:27:11.015Z,101985.09
2018-07-06T17:30:13.143Z,101989.09
2018-07-06T17:33:15.236Z,101985.40
2018-07-06T17:36:17.279Z,101991.63
2018-07-06T17:39:19.246Z,101991.97
2018-07-06T17:42:21.399Z,101995.33
2018-07-06T17:45:23.535Z,101993.16
2018-07-06T17:48:25.582Z,102002.67
2018-07-06T17:51:27.779Z,102000.15
2018-07-06T17:54:29.928Z,102004.75
2018-07-06T17:57:32.007Z,102012.68
2018-07-06T18:00:34.435Z,102011.38
2018-07-06T18:03:36.611Z,102020.48
2018-07-06T18:06:38.676Z,102021.97
2018-07-06T18:09:40.854Z,102025.86
2018-07-06T18:12:42.982Z,102031.19
2018-07-06T18:15:45.331Z,102040.98
2018-07-06T18:18:47.602Z,102044.14
2018-07-06T18:21:49.814Z,102045.96
2018-07-06T18:24:51.795Z,102047.34
2018-07-06T18:27:53.920Z,102051.03
2018-07-06T18:30:56.071Z,102051.74
2018-07-06T18:33:58.161Z,102053.00
2018-07-06T18:37:02.219Z,102053.86
2018-07-06T18:40:04.572Z,102053.29
2018-07-06T18:43:06.770Z,102054.92
2018-07-06T18:46:08.779Z,102065.80
2018-07-06T18:49:10.815Z,102069.52
2018-07-06T18:52:12.890Z,102069.88
2018-07-06T18:55:15.111Z,102073.41
2018-07-06T18:58:17.176Z,102070.77
2018-07-06T19:01:19.263Z,102071.56
2018-07-06T19:04:21.319Z,102074.72
2018-07-06T19:07:23.488Z,102081.86
2018-07-06T19:10:25.907Z,102082.91
2018-07-06T19:13:28.028Z,102087.82
2018-07-06T19:16:30.447Z,102091.87
2018-07-06T19:19:33.808Z,102091.51
2018-07-06T19:22:35.874Z,102101.49
2018-07-06T19:25:38.085Z,102100.64
2018-07-06T19:28:41.275Z,102110.29
2018-07-06T19:31:43.317Z,102120.63
2018-07-06T19:34:45.584Z,102131.40
2018-07-06T19:37:47.839Z,102134.08
2018-07-06T19:40:50.927Z,102134.81
2018-07-06T19:43:53.158Z,102140.41
2018-07-06T19:46:55.291Z,102151.35
2018-07-06T19:49:57.395Z,102155.43
2018-07-06T19:52:59.525Z,102162.14
2018-07-06T19:56:01.764Z,102169.34
2018-07-06T19:59:05.074Z,102173.41
2018-07-06T20:02:07.161Z,102185.55
2018-07-06T20:05:09.496Z,102184.20
2018-07-06T20:08:11.588Z,102186.80
2018-07-06T20:11:13.717Z,102192.07
2018-07-06T20:14:15.735Z,102205.61
2018-07-06T20:17:17.840Z,102206.25
2018-07-06T20:20:19.895Z,102214.34
2018-07-06T20:23:23.176Z,102216.02
2018-07-06T20:26:25.306Z,102221.07
2018-07-06T20:29:27.420Z,102223.83
2018-07-06T20:32:29.580Z,102227.64
2018-07-06T20:35:31.642Z,102236.43
2018-07-06T20:38:34.944Z,102240.88
2018-07-06T20:41:37.099Z,102245.24
2018-07-06T20:44:39.190Z,102247.16
2018-07-06T20:47:41.280Z,102251.46
2018-07-06T20:50:43.494Z,102251.80
2018-07-06T20:53:45.593Z,102251.12
2018-07-06T20:56:47.624Z,102256.60
2018-07-06T20:59:49.667Z,102258.03
2018-07-06T21:02:51.819Z,102260.54
2018-07-06T21:05:53.808Z,102262.41
2018-07-06T21:08:55.933Z,102260.54
2018-07-06T21:11:57.999Z,102259.63
2018-07-06T21:15:00.150Z,102261.02
2018-07-06T21:18:02.233Z,102269.74
2018-07-06T21:21:04.465Z,102271.16
2018-07-06T21:24:06.599Z,102269.32
2018-07-06T21:27:08.660Z,102270.11
2018-07-06T21:30:10.809Z,102275.17
2018-07-06T21:33:12.792Z,102277.98
2018-07-06T21:36:14.793Z,102284.31
2018-07-06T21:39:16.956Z,102275.99
2018-07-06T21:42:19.019Z,102286.31
2018-07-06T21:45:21.299Z,102286.10
2018-07-06T21:48:23.484Z,102290.08
2018-07-06T21:51:25.674Z,102294.32
2018-07-06T21:54:27.697Z,102294.14
2018-07-06T21:57:29.860Z,102291.84
2018-07-06T22:00:35.467Z,102290.33
2018-07-06T22:03:37.475Z,102290.74
2018-07-06T22:06:39.441Z,102293.95
2018-07-06T22:09:41.585Z,102293.46
2018-07-06T22:12:43.688Z,102299.76
2018-07-06T22:15:46.633Z,102299.27
2018-07-06T22:18:48.907Z,102297.27
2018-07-06T22:21:50.909Z,102298.00
2018-07-06T22:24:52.980Z,102304.43
2018-07-06T22:27:55.052Z,102308.85
2018-07-06T22:30:57.226Z,102308.85
2018-07-06T22:33:59.290Z,102310.69
2018-07-06T22:37:03.568Z,102318.61
2018-07-06T22:40:05.595Z,102317.06
2018-07-06T22:43:07.643Z,102315.65
2018-07-06T22:46:09.745Z,102318.36
2018-07-06T22:49:11.908Z,102313.29
2018-07-06T22:52:13.959Z,102313.05
2018-07-06T22:55:16.032Z,102314.02
2018-07-06T22:58:19.131Z,102309.84
2018-07-06T23:01:21.219Z,102313.15
2018-07-06T23:04:23.344Z,102308.85
2018-07-06T23:07:25.516Z,102309.80
2018-07-06T23:10:27.650Z,102309.91
2018-07-06T23:13:29.843Z,102312.86
2018-07-06T23:16:31.948Z,102315.38
2018-07-06T23:19:35.260Z,102321.06
2018-07-06T23:23:01.016Z,102316.06
2018-07-06T23:26:03.005Z,102324.43
2018-07-06T23:29:05.164Z,102324.56
2018-07-06T23:32:07.281Z,102325.34
2018-07-06T23:35:09.937Z,102327.91
2018-07-06T23:38:12.077Z,102328.47
2018-07-06T23:41:15.021Z,102330.76
2018-07-06T23:44:17.046Z,102331.19
2018-07-06T23:47:19.049Z,102330.87
2018-07-06T23:50:21.698Z,102333.79
2018-07-06T23:53:24.035Z,102328.67
2018-07-06T23:56:26.042Z,102335.25
2018-07-06T23:59:28.121Z,102332.74
